Time;durP1;ratioP1;P1;durP2;ratioP2;P2;SDS_P1;SDS_P2;PMS_P1;PMS_P2;Temp;Humidity;BMP_temperature;BMP_pressure;BME280_temperature;BME280_humidity;BME280_pressure;Samples;Min_cycle;Max_cycle;Signal;HPM_P1;HPM_P2
2022/03/19 00:01:28;;;;;;;18.48;16.77;;;18.30;41.70;;;;;;6190295;23;20226;-71
2022/03/19 00:03:56;;;;;;;18.02;16.30;;;18.30;41.40;;;;;;6189323;23;20222;-71
2022/03/19 00:06:23;;;;;;;17.35;15.75;;;18.30;41.80;;;;;;6163595;23;20164;-72
2022/03/19 00:08:50;;;;;;;17.88;16.17;;;18.20;41.80;;;;;;6189990;23;20546;-72
2022/03/19 00:11:20;;;;;;;16.15;14.65;;;18.20;42.20;;;;;;6163485;23;20220;-72
2022/03/19 00:13:48;;;;;;;16.33;14.70;;;18.20;41.60;;;;;;6190286;23;20184;-72
2022/03/19 00:16:18;;;;;;;17.00;15.38;;;18.20;41.70;;;;;;6163847;23;20645;-72
2022/03/19 00:18:45;;;;;;;17.02;15.43;;;18.20;41.80;;;;;;6163568;23;20207;-72
2022/03/19 00:21:12;;;;;;;16.33;14.82;;;18.20;41.80;;;;;;6189517;23;20526;-73
2022/03/19 00:23:40;;;;;;;17.38;15.68;;;18.20;41.70;;;;;;6163296;23;20206;-72
2022/03/19 00:26:08;;;;;;;20.85;18.70;;;18.10;41.70;;;;;;6189661;23;20637;-72
2022/03/19 00:28:37;;;;;;;17.90;16.13;;;18.10;41.40;;;;;;6190035;23;20168;-72
2022/03/19 00:31:05;;;;;;;17.85;16.15;;;18.10;41.80;;;;;;6163278;23;20172;-72
2022/03/19 00:33:33;;;;;;;17.10;15.40;;;18.10;41.70;;;;;;6162936;23;20188;-72
2022/03/19 00:36:00;;;;;;;17.23;15.52;;;18.10;41.80;;;;;;6189097;23;20164;-72
2022/03/19 00:38:29;;;;;;;18.83;16.88;;;18.00;41.60;;;;;;6162414;23;20172;-72
2022/03/19 00:40:56;;;;;;;17.90;16.20;;;18.10;41.70;;;;;;6162759;23;20693;-72
2022/03/19 00:43:23;;;;;;;17.63;15.93;;;18.10;41.80;;;;;;6162857;23;20200;-72
2022/03/19 00:45:52;;;;;;;20.02;18.23;;;18.10;41.80;;;;;;6162895;23;20203;-72
2022/03/19 00:48:22;;;;;;;20.08;18.08;;;18.00;41.40;;;;;;6162909;23;20183;-72
2022/03/19 00:50:50;;;;;;;18.30;16.50;;;18.00;41.50;;;;;;6187371;23;20231;-72
2022/03/19 00:53:17;;;;;;;17.98;16.25;;;18.00;41.70;;;;;;6187905;23;20304;-72
2022/03/19 00:55:44;;;;;;;18.10;16.25;;;18.00;41.70;;;;;;6163095;23;20172;-72
2022/03/19 00:58:13;;;;;;;17.63;15.85;;;18.00;41.70;;;;;;6187375;23;20520;-72
2022/03/19 01:00:41;;;;;;;17.75;16.08;;;18.00;41.50;;;;;;6162670;23;20207;-72
2022/03/19 01:03:10;;;;;;;17.45;15.77;;;17.90;41.60;;;;;;6187315;23;20665;-72
2022/03/19 01:05:37;;;;;;;18.88;16.92;;;17.90;41.60;;;;;;6162960;23;20259;-72
2022/03/19 01:08:04;;;;;;;18.50;16.58;;;17.90;41.60;;;;;;6163217;23;20168;-72
2022/03/19 01:10:33;;;;;;;16.85;15.23;;;17.90;41.50;;;;;;6188584;23;20183;-72
2022/03/19 01:13:00;;;;;;;18.33;16.52;;;17.90;41.80;;;;;;6186960;23;20172;-72
2022/03/19 01:15:27;;;;;;;17.90;16.13;;;17.90;41.70;;;;;;6188936;23;20184;-72
2022/03/19 01:17:54;;;;;;;17.45;15.73;;;17.90;41.80;;;;;;6162747;23;20176;-72
2022/03/19 01:20:24;;;;;;;16.98;15.32;;;17.90;41.90;;;;;;6189320;23;20165;-72
2022/03/19 01:22:52;;;;;;;17.33;15.73;;;17.80;41.70;;;;;;6186942;23;20184;-72
2022/03/19 01:25:19;;;;;;;16.73;15.20;;;17.80;41.50;;;;;;6185769;23;20198;-72
2022/03/19 01:27:47;;;;;;;17.83;15.95;;;17.80;42.50;;;;;;6185830;23;20176;-72
2022/03/19 01:30:16;;;;;;;16.50;14.98;;;17.80;41.80;;;;;;6160418;23;20305;-72
2022/03/19 01:32:44;;;;;;;15.15;13.63;;;17.80;41.80;;;;;;6160935;23;20172;-72
2022/03/19 01:35:11;;;;;;;16.50;14.90;;;17.80;41.70;;;;;;6185483;23;20195;-72
2022/03/19 01:37:40;;;;;;;17.52;15.80;;;17.80;41.80;;;;;;6187712;23;20239;-72
2022/03/19 01:40:09;;;;;;;18.23;16.50;;;17.80;41.80;;;;;;6161418;23;20175;-72
2022/03/19 01:42:37;;;;;;;16.85;15.15;;;17.80;41.80;;;;;;6188176;23;20179;-72
2022/03/19 01:45:06;;;;;;;17.42;15.73;;;17.80;41.90;;;;;;6161529;23;20592;-72
2022/03/19 01:47:34;;;;;;;17.02;15.43;;;17.80;41.80;;;;;;6161061;23;20231;-72
2022/03/19 01:50:01;;;;;;;17.63;15.93;;;17.70;41.90;;;;;;6186159;23;20198;-72
2022/03/19 01:52:29;;;;;;;17.58;15.88;;;17.70;41.70;;;;;;6161248;23;20653;-72
2022/03/19 01:54:59;;;;;;;16.55;14.95;;;17.70;41.80;;;;;;6160814;23;20195;-72
2022/03/19 01:57:28;;;;;;;17.38;15.68;;;17.70;41.70;;;;;;6162596;23;20192;-72
2022/03/19 01:59:56;;;;;;;15.70;14.30;;;17.70;41.80;;;;;;6164167;23;20227;-72
2022/03/19 02:02:25;;;;;;;16.85;15.18;;;17.70;42.10;;;;;;6162825;23;20262;-72
2022/03/19 02:04:53;;;;;;;16.33;14.80;;;17.70;41.80;;;;;;6163851;23;20196;-72
2022/03/19 02:07:20;;;;;;;17.75;16.15;;;17.70;41.70;;;;;;6190636;23;20332;-72
2022/03/19 02:09:48;;;;;;;17.33;15.63;;;17.70;41.70;;;;;;6165168;23;20258;-74
2022/03/19 02:12:17;;;;;;;16.58;14.93;;;17.70;41.80;;;;;;6192727;23;20168;-72
2022/03/19 02:14:47;;;;;;;15.93;14.43;;;17.60;41.60;;;;;;6165907;23;20192;-72
2022/03/19 02:17:14;;;;;;;18.50;16.60;;;17.60;41.70;;;;;;6166887;23;20175;-72
2022/03/19 02:19:48;;;;;;;16.55;14.95;;;17.60;41.60;;;;;;6190533;23;20607;-72
2022/03/19 02:22:16;;;;;;;16.63;15.02;;;17.60;41.70;;;;;;6191178;23;20210;-73
2022/03/19 02:27:30;;;;;;;16.30;14.60;;;17.50;41.80;;;;;;6166408;23;20170;-72
2022/03/19 02:29:58;;;;;;;17.02;15.30;;;17.50;41.70;;;;;;6190816;23;20176;-72
2022/03/19 02:32:25;;;;;;;16.35;14.77;;;17.50;41.80;;;;;;6192041;23;20222;-72
2022/03/19 02:34:53;;;;;;;15.88;14.27;;;17.50;41.80;;;;;;6189502;23;20188;-72
2022/03/19 02:37:21;;;;;;;17.02;15.43;;;17.50;41.90;;;;;;6189712;23;20230;-72
2022/03/19 02:39:49;;;;;;;17.20;15.52;;;17.50;41.80;;;;;;6190073;23;20172;-72
2022/03/19 02:42:18;;;;;;;16.88;15.27;;;17.50;41.80;;;;;;6165512;23;20168;-72
2022/03/19 02:44:45;;;;;;;16.58;14.98;;;17.50;41.80;;;;;;6190973;23;20196;-72
2022/03/19 02:47:13;;;;;;;16.60;14.98;;;17.50;42.30;;;;;;6189063;23;20171;-72
2022/03/19 02:49:40;;;;;;;16.85;15.18;;;17.50;41.80;;;;;;6190928;23;20174;-72
2022/03/19 02:52:08;;;;;;;16.23;14.63;;;17.50;41.70;;;;;;6189375;23;20218;-72
2022/03/19 02:54:38;;;;;;;17.42;15.73;;;17.50;41.80;;;;;;6165114;23;20208;-72
2022/03/19 02:57:10;;;;;;;17.00;15.30;;;17.50;41.80;;;;;;6188825;23;20180;-72
2022/03/19 02:59:38;;;;;;;16.10;14.60;;;17.40;41.70;;;;;;6189193;23;20156;-72
2022/03/19 03:04:41;;;;;;;16.40;14.85;;;17.40;41.60;;;;;;6099609;23;20573;-64
2022/03/19 03:07:09;;;;;;;16.42;14.82;;;17.40;41.70;;;;;;6099462;23;20167;-65
2022/03/19 03:09:36;;;;;;;16.17;14.63;;;17.40;41.60;;;;;;6099107;23;20166;-63
2022/03/19 03:12:04;;;;;;;15.50;13.90;;;17.40;41.70;;;;;;6074026;23;20193;-62
2022/03/19 03:14:32;;;;;;;16.42;14.82;;;17.40;41.60;;;;;;6097725;23;20174;-63
2022/03/19 03:17:01;;;;;;;15.07;13.68;;;17.40;41.60;;;;;;6073960;23;20185;-63
2022/03/19 03:19:29;;;;;;;16.40;14.80;;;17.40;41.70;;;;;;6099110;23;20601;-62
2022/03/19 03:21:57;;;;;;;17.13;15.52;;;17.30;41.50;;;;;;6097574;23;20179;-62
2022/03/19 03:24:24;;;;;;;16.65;15.10;;;17.40;41.60;;;;;;6099044;23;20272;-63
2022/03/19 03:26:52;;;;;;;15.93;14.35;;;17.40;41.60;;;;;;6073632;23;20185;-63
2022/03/19 03:29:20;;;;;;;16.30;14.82;;;17.30;41.70;;;;;;6073926;23;20248;-63
2022/03/19 03:32:14;;;;;;;15.68;14.07;;;17.30;42.10;;;;;;6100153;23;20168;-63
2022/03/19 03:34:41;;;;;;;16.15;14.48;;;17.30;41.60;;;;;;6073973;23;20174;-63
2022/03/19 03:37:09;;;;;;;15.60;14.13;;;17.30;41.50;;;;;;6098720;23;20170;-62
2022/03/19 03:39:38;;;;;;;15.82;14.32;;;17.20;41.50;;;;;;6099122;23;20173;-62
2022/03/19 03:42:05;;;;;;;16.10;14.57;;;17.30;41.70;;;;;;6072727;23;20613;-62
2022/03/19 03:44:33;;;;;;;15.43;14.05;;;17.20;41.50;;;;;;6098161;23;20185;-62
2022/03/19 03:47:00;;;;;;;16.48;14.88;;;17.20;41.50;;;;;;6098189;23;20171;-62
2022/03/19 03:49:29;;;;;;;15.65;14.15;;;17.20;42.20;;;;;;6098739;23;20170;-62
2022/03/19 03:51:56;;;;;;;15.77;14.27;;;17.20;42.20;;;;;;6099132;23;20168;-62
2022/03/19 03:54:24;;;;;;;16.38;14.77;;;17.20;41.50;;;;;;6097281;23;20261;-63
2022/03/19 03:56:52;;;;;;;16.42;14.93;;;17.20;42.20;;;;;;6073462;23;20183;-63
2022/03/19 03:59:25;;;;;;;16.02;14.48;;;17.20;41.60;;;;;;6099288;23;20170;-63
2022/03/19 04:01:54;;;;;;;16.63;15.02;;;17.10;41.50;;;;;;6073330;23;20236;-63
2022/03/19 04:04:21;;;;;;;15.30;13.80;;;17.10;41.50;;;;;;6123927;23;20190;-62
2022/03/19 04:06:49;;;;;;;16.52;14.98;;;17.10;42.10;;;;;;6127771;23;20508;-62
2022/03/19 04:09:17;;;;;;;16.52;14.82;;;17.10;41.40;;;;;;6127977;23;20169;-62
2022/03/19 04:11:44;;;;;;;16.35;14.75;;;17.10;41.30;;;;;;6128418;23;20578;-63
2022/03/19 04:14:11;;;;;;;15.48;13.98;;;17.10;41.30;;;;;;6102060;23;20190;-62
2022/03/19 04:16:39;;;;;;;16.35;14.68;;;17.10;41.50;;;;;;6127744;23;20620;-62
2022/03/19 04:19:06;;;;;;;16.08;14.57;;;17.10;41.40;;;;;;6102271;23;20626;-62
2022/03/19 04:21:34;;;;;;;16.70;15.10;;;17.10;41.30;;;;;;6128025;23;20166;-63
2022/03/19 04:24:03;;;;;;;15.68;14.30;;;17.10;41.40;;;;;;6126268;23;20671;-62
2022/03/19 04:26:30;;;;;;;15.82;14.27;;;17.00;41.20;;;;;;6126728;23;20173;-65
2022/03/19 04:28:57;;;;;;;16.42;14.93;;;17.00;41.30;;;;;;6129072;23;20566;-62
2022/03/19 04:31:24;;;;;;;16.17;14.57;;;17.00;41.20;;;;;;6128423;23;20162;-64
2022/03/19 04:33:51;;;;;;;14.18;12.88;;;17.00;41.20;;;;;;6101836;23;20190;-63
2022/03/19 04:36:30;;;;;;;15.05;13.65;;;17.00;41.30;;;;;;6126554;23;20177;-62
2022/03/19 04:38:57;;;;;;;15.15;13.80;;;17.00;41.30;;;;;;6125922;23;20218;-62
2022/03/19 04:41:27;;;;;;;16.02;14.45;;;17.00;41.30;;;;;;6126358;23;20687;-63
2022/03/19 04:43:55;;;;;;;15.13;13.73;;;17.00;41.10;;;;;;6126379;23;20598;-62
2022/03/19 04:46:22;;;;;;;16.35;14.75;;;17.00;41.00;;;;;;6102572;23;20202;-62
2022/03/19 04:48:50;;;;;;;15.15;13.68;;;17.00;41.20;;;;;;6128302;23;20661;-63
2022/03/19 04:51:18;;;;;;;16.30;14.75;;;17.10;41.40;;;;;;6127264;23;20256;-62
2022/03/19 04:53:49;;;;;;;15.50;14.00;;;17.10;41.50;;;;;;6101743;23;20544;-62
2022/03/19 04:56:17;;;;;;;14.27;12.98;;;17.00;41.30;;;;;;6128133;23;20173;-62
2022/03/19 04:58:46;;;;;;;14.80;13.40;;;17.00;41.30;;;;;;6102302;23;20201;-64
2022/03/19 05:01:14;;;;;;;14.85;13.45;;;17.10;41.40;;;;;;6128587;23;20146;-62
2022/03/19 05:03:41;;;;;;;14.88;13.40;;;17.10;41.30;;;;;;6101460;23;20255;-62
2022/03/19 05:06:08;;;;;;;14.90;13.57;;;17.00;41.90;;;;;;6128277;23;20462;-62
2022/03/19 05:08:35;;;;;;;15.00;13.60;;;17.00;41.20;;;;;;6127340;23;20515;-62
2022/03/19 05:11:16;;;;;;;14.93;13.48;;;17.10;41.40;;;;;;6128430;23;20585;-63
2022/03/19 05:13:45;;;;;;;14.20;12.90;;;17.00;41.30;;;;;;6127673;23;20181;-63
2022/03/19 05:16:12;;;;;;;14.80;13.35;;;17.10;41.30;;;;;;6126821;23;20180;-63
2022/03/19 05:18:40;;;;;;;14.32;13.02;;;17.10;41.30;;;;;;6128608;23;20170;-63
2022/03/19 05:21:07;;;;;;;15.02;13.43;;;17.10;41.20;;;;;;6128094;23;20605;-63
2022/03/19 05:23:35;;;;;;;16.42;14.82;;;17.10;41.10;;;;;;6102571;23;20252;-63
2022/03/19 05:26:02;;;;;;;14.88;13.48;;;17.10;40.90;;;;;;6102858;23;20173;-63
2022/03/19 05:28:29;;;;;;;16.25;14.65;;;17.10;41.40;;;;;;6127159;23;20224;-63
2022/03/19 05:31:00;;;;;;;15.60;13.98;;;17.10;40.70;;;;;;6126785;23;20236;-63
2022/03/19 05:36:08;;;;;;;16.08;14.52;;;17.10;41.40;;;;;;6127130;23;20200;-62
2022/03/19 05:38:35;;;;;;;15.95;14.45;;;17.20;40.90;;;;;;6128355;23;20248;-62
2022/03/19 05:41:03;;;;;;;16.67;15.13;;;17.20;41.00;;;;;;6126834;23;20169;-62
2022/03/19 05:43:31;;;;;;;16.52;15.02;;;17.20;41.30;;;;;;6128744;23;20213;-62
2022/03/19 05:46:00;;;;;;;16.38;14.77;;;17.20;40.60;;;;;;6103025;23;20173;-62
2022/03/19 05:48:27;;;;;;;16.58;13.25;;;17.30;40.70;;;;;;6127788;23;20553;-62
2022/03/19 05:50:54;;;;;;;16.90;15.30;;;17.30;41.00;;;;;;6103482;23;20173;-62
2022/03/19 05:53:22;;;;;;;16.10;14.43;;;17.30;40.70;;;;;;6129986;23;20189;-62
2022/03/19 05:55:49;;;;;;;17.83;16.02;;;17.30;41.00;;;;;;6129679;23;20169;-62
2022/03/19 05:58:16;;;;;;;16.38;14.80;;;17.40;40.60;;;;;;6128728;23;20627;-63
2022/03/19 06:00:43;;;;;;;15.93;14.35;;;17.40;40.60;;;;;;6131852;23;20169;-63
2022/03/19 06:03:14;;;;;;;16.25;14.55;;;17.40;40.80;;;;;;6147675;23;20224;-63
2022/03/19 06:05:41;;;;;;;16.33;14.63;;;17.50;40.80;;;;;;6148301;23;20184;-63
2022/03/19 06:08:08;;;;;;;15.45;13.95;;;17.50;40.80;;;;;;6179886;23;20253;-71
2022/03/19 06:10:35;;;;;;;16.15;14.52;;;17.50;40.70;;;;;;6190430;23;20168;-70
2022/03/19 06:13:03;;;;;;;16.60;15.00;;;17.60;40.50;;;;;;6177974;23;20250;-70
2022/03/19 06:15:31;;;;;;;15.52;14.05;;;17.60;40.20;;;;;;6163224;23;20183;-72
2022/03/19 06:17:57;;;;;;;15.43;13.82;;;17.60;40.40;;;;;;6161728;23;20501;-70
2022/03/19 06:20:26;;;;;;;14.95;13.45;;;17.70;41.10;;;;;;6163033;23;20688;-71
2022/03/19 06:22:54;;;;;;;15.18;13.68;;;17.70;40.50;;;;;;6163262;23;20192;-71
2022/03/19 06:25:21;;;;;;;16.00;14.40;;;17.70;40.50;;;;;;6162373;23;20192;-72
2022/03/19 06:27:48;;;;;;;15.52;14.02;;;17.80;40.30;;;;;;6162624;23;20510;-72
2022/03/19 06:30:15;;;;;;;14.40;12.90;;;17.70;40.00;;;;;;6161660;23;20638;-72
2022/03/19 06:32:42;;;;;;;16.02;14.43;;;17.80;40.30;;;;;;6161315;23;20198;-72
2022/03/19 06:35:10;;;;;;;14.52;13.13;;;17.90;40.00;;;;;;6161747;23;20498;-72
2022/03/19 06:37:38;;;;;;;14.45;13.05;;;17.90;39.80;;;;;;6161175;23;20512;-72
2022/03/19 06:40:07;;;;;;;15.07;13.65;;;17.90;40.10;;;;;;6161390;23;20253;-72
2022/03/19 06:42:35;;;;;;;14.85;13.45;;;17.90;39.60;;;;;;6161194;23;20196;-73
2022/03/19 06:45:02;;;;;;;15.50;13.98;;;17.90;39.60;;;;;;6189952;23;20180;-73
2022/03/19 06:47:30;;;;;;;14.30;12.90;;;18.00;39.30;;;;;;6163254;23;20175;-73
2022/03/19 06:50:00;;;;;;;16.80;15.07;;;18.00;39.50;;;;;;6169900;23;20191;-72
2022/03/19 06:52:30;;;;;;;15.00;13.57;;;18.00;39.30;;;;;;6163247;23;20199;-73
2022/03/19 06:54:59;;;;;;;15.48;13.95;;;18.10;39.20;;;;;;6164921;23;20165;-73
2022/03/19 06:57:26;;;;;;;15.85;14.35;;;18.20;39.10;;;;;;6165200;23;20172;-74
2022/03/19 06:59:54;;;;;;;15.85;14.35;;;18.20;38.70;;;;;;6164673;23;20182;-74
2022/03/19 07:02:22;;;;;;;15.70;14.20;;;18.30;38.40;;;;;;6191176;23;20258;-73
2022/03/19 07:04:50;;;;;;;15.98;14.27;;;18.40;38.50;;;;;;6165562;23;20192;-73
2022/03/19 07:07:18;;;;;;;15.63;14.13;;;18.50;37.90;;;;;;6164705;23;20176;-74
2022/03/19 07:09:45;;;;;;;16.52;14.82;;;18.60;38.70;;;;;;6164599;23;20599;-74
2022/03/19 07:12:15;;;;;;;15.40;13.85;;;18.70;37.80;;;;;;6164490;23;20200;-73
2022/03/19 07:14:43;;;;;;;15.05;13.70;;;18.80;37.50;;;;;;6191593;23;20168;-73
2022/03/19 07:17:10;;;;;;;14.25;12.95;;;18.90;37.60;;;;;;6166556;23;20172;-74
2022/03/19 07:19:37;;;;;;;16.27;14.68;;;19.00;37.40;;;;;;6167471;23;20606;-74
2022/03/19 07:22:05;;;;;;;14.73;13.32;;;19.20;37.00;;;;;;6164350;23;20630;-73
2022/03/19 07:24:32;;;;;;;15.32;13.93;;;19.40;37.10;;;;;;6190563;23;20177;-73
2022/03/19 07:27:00;;;;;;;14.75;13.38;;;19.50;36.70;;;;;;6164187;23;20188;-73
2022/03/19 07:29:29;;;;;;;16.02;14.50;;;19.70;36.40;;;;;;6190084;23;20172;-74
2022/03/19 07:31:56;;;;;;;15.90;14.27;;;19.80;36.00;;;;;;6163984;23;20172;-74
2022/03/19 07:34:23;;;;;;;15.40;13.90;;;19.90;35.70;;;;;;6191532;23;20242;-73
2022/03/19 07:36:51;;;;;;;16.02;14.32;;;20.00;35.60;;;;;;6163560;23;20267;-73
2022/03/19 07:39:18;;;;;;;15.93;14.38;;;20.10;35.40;;;;;;6164008;23;20172;-74
2022/03/19 07:41:48;;;;;;;17.20;15.43;;;20.20;35.20;;;;;;6163746;23;20200;-73
2022/03/19 07:44:16;;;;;;;16.02;14.40;;;20.30;36.00;;;;;;6162573;23;20196;-70
2022/03/19 07:46:48;;;;;;;16.65;14.95;;;20.40;35.10;;;;;;6162463;23;20222;-71
2022/03/19 07:49:15;;;;;;;16.35;14.75;;;20.50;34.90;;;;;;6162536;23;20172;-71
2022/03/19 07:51:42;;;;;;;15.50;13.98;;;20.60;34.90;;;;;;6163432;23;20543;-71
2022/03/19 07:54:12;;;;;;;18.33;16.42;;;20.70;34.70;;;;;;6189189;23;20204;-72
2022/03/19 07:56:39;;;;;;;15.55;14.07;;;20.80;34.50;;;;;;6161867;23;20203;-71
2022/03/19 07:59:07;;;;;;;15.15;13.10;;;20.90;34.50;;;;;;6162546;23;20227;-69
2022/03/19 08:01:35;;;;;;;16.98;15.27;;;21.00;34.30;;;;;;6162213;23;20246;-71
2022/03/19 08:04:04;;;;;;;16.55;14.90;;;21.10;33.80;;;;;;6188417;23;20204;-71
2022/03/19 08:06:31;;;;;;;16.20;14.70;;;21.10;33.70;;;;;;6161871;23;20232;-72
2022/03/19 08:08:58;;;;;;;14.85;13.35;;;21.20;33.60;;;;;;6162640;23;20524;-70
2022/03/19 08:11:26;;;;;;;15.57;14.18;;;21.30;33.60;;;;;;6163629;23;20179;-72
2022/03/19 08:13:53;;;;;;;13.27;11.98;;;21.40;33.50;;;;;;6160965;23;20192;-71
2022/03/19 08:16:20;;;;;;;14.27;12.88;;;21.40;33.20;;;;;;6160664;23;20177;-71
2022/03/19 08:18:47;;;;;;;14.25;12.95;;;21.50;33.30;;;;;;6160524;23;20172;-71
2022/03/19 08:21:15;;;;;;;15.35;13.85;;;21.60;33.40;;;;;;6160736;23;20176;-71
2022/03/19 08:23:42;;;;;;;14.98;13.57;;;21.70;33.20;;;;;;6186774;23;20188;-71
2022/03/19 08:26:10;;;;;;;13.68;12.35;;;21.80;32.80;;;;;;6160933;23;20200;-71
2022/03/19 08:28:37;;;;;;;13.75;12.45;;;21.80;32.90;;;;;;6186829;23;20174;-71
2022/03/19 08:31:04;;;;;;;14.00;12.60;;;21.90;32.70;;;;;;6160639;23;20172;-71
2022/03/19 08:33:31;;;;;;;14.15;12.85;;;22.00;32.80;;;;;;6160558;23;20209;-71
2022/03/19 08:35:59;;;;;;;15.02;13.55;;;22.00;32.50;;;;;;6160859;23;20164;-72
2022/03/19 08:41:12;;;;;;;13.40;12.10;;;22.20;32.50;;;;;;6160520;23;20179;-71
2022/03/19 08:43:39;;;;;;;14.45;12.98;;;22.20;32.80;;;;;;6160636;23;20224;-71
2022/03/19 08:46:06;;;;;;;13.25;12.00;;;22.30;32.70;;;;;;6187062;23;20657;-71
2022/03/19 08:48:34;;;;;;;12.80;11.52;;;22.40;32.60;;;;;;6187197;23;20183;-71
2022/03/19 08:53:43;;;;;;;14.68;13.27;;;22.50;32.00;;;;;;6159881;23;20194;-72
2022/03/19 08:56:11;;;;;;;12.43;11.32;;;22.50;31.90;;;;;;6188242;23;20164;-71
2022/03/19 08:58:38;;;;;;;11.85;10.85;;;22.50;31.90;;;;;;6187783;23;20243;-72
2022/03/19 09:01:06;;;;;;;11.30;10.30;;;22.60;31.90;;;;;;6162395;23;20623;-71
2022/03/19 09:03:33;;;;;;;12.73;11.63;;;22.60;31.80;;;;;;6187422;23;20184;-71
2022/03/19 09:06:01;;;;;;;12.63;11.45;;;22.70;31.80;;;;;;6187217;23;20193;-72
2022/03/19 09:08:28;;;;;;;11.80;10.70;;;22.70;31.60;;;;;;6161426;23;20175;-71
2022/03/19 09:10:58;;;;;;;10.40;9.48;;;22.70;31.60;;;;;;6164446;23;20196;-71
2022/03/19 09:13:26;;;;;;;13.57;12.27;;;22.80;31.60;;;;;;6191857;23;20251;-71
2022/03/19 09:15:54;;;;;;;12.65;11.48;;;22.80;32.00;;;;;;6160829;23;20200;-71
2022/03/19 09:18:21;;;;;;;11.75;10.65;;;22.90;31.20;;;;;;6186576;23;20511;-71
2022/03/19 09:20:49;;;;;;;11.05;10.05;;;22.80;31.30;;;;;;6186634;23;20206;-71
2022/03/19 09:23:17;;;;;;;10.82;9.55;;;22.90;31.40;;;;;;6159985;23;20199;-71
2022/03/19 09:25:44;;;;;;;13.85;12.57;;;22.90;31.40;;;;;;6160644;23;20192;-70
2022/03/19 09:28:13;;;;;;;11.52;10.38;;;23.00;31.40;;;;;;6186485;23;20175;-72
2022/03/19 09:30:40;;;;;;;12.30;11.13;;;23.00;31.30;;;;;;6160371;23;20168;-72
2022/03/19 09:33:07;;;;;;;10.45;9.45;;;23.00;31.10;;;;;;6160091;23;20196;-71
2022/03/19 09:35:34;;;;;;;10.13;9.13;;;23.00;31.10;;;;;;6186027;23;20218;-71
2022/03/19 09:38:02;;;;;;;10.00;9.10;;;23.10;31.30;;;;;;6159785;23;20187;-71
2022/03/19 09:40:29;;;;;;;10.95;9.95;;;23.10;31.10;;;;;;6159736;23;20200;-71
2022/03/19 09:42:57;;;;;;;10.05;9.15;;;23.10;31.00;;;;;;6159422;23;20192;-72
2022/03/19 09:45:26;;;;;;;10.15;9.25;;;23.10;31.60;;;;;;6159719;23;20617;-71
2022/03/19 09:47:55;;;;;;;10.30;9.32;;;23.20;31.00;;;;;;6159824;23;20490;-71
2022/03/19 09:50:22;;;;;;;10.57;9.65;;;23.20;31.00;;;;;;6185997;23;20168;-71
2022/03/19 09:52:51;;;;;;;10.70;9.80;;;23.20;30.90;;;;;;6160450;23;20294;-71
2022/03/19 09:55:20;;;;;;;9.75;8.85;;;23.20;30.90;;;;;;6160114;23;20168;-72
2022/03/19 09:57:47;;;;;;;10.20;9.30;;;23.30;30.90;;;;;;6159653;23;20176;-72
2022/03/19 10:00:15;;;;;;;10.82;9.90;;;23.30;30.80;;;;;;6159659;23;20689;-72
2022/03/19 10:02:54;;;;;;;10.40;9.40;;;23.30;30.70;;;;;;6159792;23;20196;-72
2022/03/19 10:10:51;;;;;;;11.05;10.05;;;23.20;30.70;;;;;;6159719;23;20184;-71
2022/03/19 10:13:18;;;;;;;10.02;9.13;;;23.30;30.80;;;;;;6159706;23;20194;-71
2022/03/19 10:15:46;;;;;;;10.52;9.52;;;23.30;30.80;;;;;;6159740;23;20203;-71
2022/03/19 10:18:14;;;;;;;9.82;8.93;;;23.30;30.80;;;;;;6161300;23;20223;-71
2022/03/19 10:20:42;;;;;;;10.02;9.02;;;23.20;30.70;;;;;;6162008;23;20187;-72
2022/03/19 10:23:09;;;;;;;9.55;8.65;;;23.20;30.80;;;;;;6162119;23;20192;-71
2022/03/19 10:25:36;;;;;;;10.23;9.32;;;23.20;30.90;;;;;;6162224;23;20282;-72
2022/03/19 10:28:08;;;;;;;10.02;9.13;;;23.20;30.90;;;;;;6161443;23;20352;-71
2022/03/19 10:30:36;;;;;;;9.50;8.70;;;23.20;30.90;;;;;;6161520;23;20248;-72
2022/03/19 10:33:04;;;;;;;9.80;8.90;;;23.20;30.90;;;;;;6161401;23;20219;-72
2022/03/19 10:35:33;;;;;;;10.60;9.70;;;23.20;31.00;;;;;;6161410;23;20172;-72
2022/03/19 10:38:03;;;;;;;10.38;9.40;;;23.20;31.10;;;;;;6161895;23;20171;-72
2022/03/19 10:40:37;;;;;;;9.18;8.38;;;23.10;31.00;;;;;;6161648;23;20251;-72
2022/03/19 10:43:05;;;;;;;10.52;9.63;;;23.10;31.10;;;;;;6161949;23;20278;-72
2022/03/19 10:45:33;;;;;;;9.43;8.63;;;23.10;31.20;;;;;;6161568;23;20199;-72
2022/03/19 10:48:01;;;;;;;9.63;8.73;;;23.00;31.10;;;;;;6187651;23;20237;-71
2022/03/19 10:50:28;;;;;;;9.95;9.05;;;23.00;31.20;;;;;;6161243;23;20183;-71
2022/03/19 10:52:57;;;;;;;10.13;9.13;;;23.00;31.30;;;;;;6161145;23;20194;-72
2022/03/19 10:55:25;;;;;;;10.30;9.30;;;22.90;31.40;;;;;;6161222;23;20258;-71
2022/03/19 10:57:53;;;;;;;10.35;9.45;;;22.90;31.40;;;;;;6161450;23;20255;-71
2022/03/19 11:00:20;;;;;;;9.75;8.85;;;22.90;31.50;;;;;;6161021;23;20175;-72
2022/03/19 11:02:48;;;;;;;10.50;9.55;;;22.80;31.40;;;;;;6187629;23;20247;-72
2022/03/19 11:05:17;;;;;;;9.63;8.80;;;22.80;31.40;;;;;;6161288;23;20176;-72
2022/03/19 11:07:44;;;;;;;10.07;9.13;;;22.80;31.50;;;;;;6161067;23;20180;-72
2022/03/19 11:10:13;;;;;;;9.70;8.90;;;22.80;31.60;;;;;;6161030;23;20658;-71
2022/03/19 11:12:43;;;;;;;9.65;8.82;;;22.80;31.70;;;;;;6161133;23;20621;-72
2022/03/19 11:15:11;;;;;;;10.73;9.63;;;22.80;31.80;;;;;;6161041;23;20255;-72
2022/03/19 11:17:40;;;;;;;10.25;9.35;;;22.70;31.80;;;;;;6161158;23;20176;-71
2022/03/19 11:20:09;;;;;;;10.23;9.32;;;22.70;31.50;;;;;;6160774;23;20176;-72
2022/03/19 11:22:39;;;;;;;9.65;8.80;;;22.70;31.70;;;;;;6160949;23;20196;-71
2022/03/19 11:25:10;;;;;;;10.23;9.32;;;22.60;31.70;;;;;;6187448;23;20602;-72
2022/03/19 11:27:41;;;;;;;9.82;8.93;;;22.60;31.80;;;;;;6160972;23;20263;-72
2022/03/19 11:30:15;;;;;;;9.70;8.80;;;22.60;31.90;;;;;;6160675;23;20661;-71
2022/03/19 11:33:00;;;;;;;9.23;8.43;;;22.60;31.80;;;;;;6161200;23;20559;-72
2022/03/19 11:35:27;;;;;;;10.00;9.10;;;22.60;32.10;;;;;;6161620;23;20176;-71
2022/03/19 11:37:58;;;;;;;10.60;8.95;;;22.60;31.50;;;;;;6161429;23;20513;-72
2022/03/19 11:40:35;;;;;;;10.20;9.20;;;22.60;31.30;;;;;;6161237;23;20179;-72
2022/03/19 11:43:05;;;;;;;9.38;8.57;;;22.60;31.30;;;;;;6161443;23;20206;-72
2022/03/19 11:45:40;;;;;;;9.93;8.93;;;22.60;31.70;;;;;;6187841;23;20224;-72
2022/03/19 11:48:41;;;;;;;9.05;8.25;;;22.60;31.30;;;;;;6188055;23;20484;-72
2022/03/19 11:51:31;;;;;;;8.40;7.70;;;22.60;31.40;;;;;;6162623;23;20176;-71
2022/03/19 11:53:59;;;;;;;9.10;8.30;;;22.60;31.70;;;;;;6161892;23;20534;-70
2022/03/19 11:56:28;;;;;;;9.73;8.82;;;22.60;31.70;;;;;;6161393;23;20223;-72
2022/03/19 11:58:56;;;;;;;9.75;8.52;;;22.60;31.10;;;;;;6187885;23;20619;-72
2022/03/19 12:01:49;;;;;;;8.27;7.57;;;22.60;31.10;;;;;;6196719;22;20183;-67
2022/03/19 12:04:17;;;;;;;9.95;8.95;;;22.60;31.50;;;;;;6188550;23;20251;-67
2022/03/19 12:06:51;;;;;;;9.20;8.40;;;22.60;31.20;;;;;;6186663;23;20206;-67
2022/03/19 12:09:19;;;;;;;8.73;8.00;;;22.60;31.30;;;;;;6160076;23;20171;-67
2022/03/19 12:12:09;;;;;;;9.07;8.25;;;22.60;31.50;;;;;;6160204;23;20569;-67
2022/03/19 12:14:37;;;;;;;8.93;8.10;;;22.60;31.30;;;;;;6160410;23;20176;-68
2022/03/19 12:17:17;;;;;;;10.10;8.95;;;22.50;31.60;;;;;;6161623;23;20282;-69
2022/03/19 12:19:49;;;;;;;9.30;8.45;;;22.50;31.20;;;;;;6186534;23;20172;-69
2022/03/19 12:22:26;;;;;;;9.30;8.43;;;22.50;31.20;;;;;;6160374;23;20176;-68
2022/03/19 12:24:54;;;;;;;9.35;8.38;;;22.50;31.10;;;;;;6187001;23;20579;-68
2022/03/19 12:27:21;;;;;;;8.27;7.50;;;22.50;31.30;;;;;;6160031;23;20199;-69
2022/03/19 12:29:50;;;;;;;8.40;7.60;;;22.50;31.30;;;;;;6160411;23;20207;-68
2022/03/19 12:32:17;;;;;;;8.30;7.50;;;22.50;31.50;;;;;;6160058;23;20263;-69
2022/03/19 12:34:44;;;;;;;7.60;6.97;;;22.50;31.60;;;;;;6160279;23;20180;-69
2022/03/19 12:37:11;;;;;;;8.27;7.53;;;22.40;31.80;;;;;;6159934;23;20172;-69
2022/03/19 12:39:38;;;;;;;8.65;7.85;;;22.40;31.20;;;;;;6160128;23;20179;-69
2022/03/19 12:42:06;;;;;;;8.55;7.63;;;22.40;31.10;;;;;;6159708;23;20259;-69
2022/03/19 12:44:36;;;;;;;9.20;8.30;;;22.30;31.30;;;;;;6159894;23;20176;-69
2022/03/19 12:47:05;;;;;;;9.18;8.30;;;22.30;31.00;;;;;;6160414;23;20195;-69
2022/03/19 12:49:33;;;;;;;8.35;7.60;;;22.30;30.80;;;;;;6186501;23;20174;-68
2022/03/19 12:52:06;;;;;;;8.57;7.80;;;22.30;31.30;;;;;;6160038;23;20678;-69
2022/03/19 12:54:33;;;;;;;8.52;7.72;;;22.30;31.00;;;;;;6181781;23;20207;-55
2022/03/19 12:57:09;;;;;;;8.95;8.05;;;22.20;30.70;;;;;;6189540;23;20218;-57